Time;durP1;ratioP1;P1;durP2;ratioP2;P2;SDS_P1;SDS_P2;PMS_P1;PMS_P2;Temp;Humidity;BMP_temperature;BMP_pressure;BME280_temperature;BME280_humidity;BME280_pressure;Samples;Min_cycle;Max_cycle;Signal;HPM_P1;HPM_P2
2021/09/04 00:04:41;;;;;;;16.87;9.50;;;;;;;11.00;85.13;100730.16;21326698;81;99513;-90
2021/09/04 00:34:42;;;;;;;23.73;11.78;;;;;;;10.65;85.88;100733.21;21344494;81;99702;-88
2021/09/04 01:04:43;;;;;;;21.70;11.10;;;;;;;10.36;86.93;100726.25;21346752;81;99915;-89
2021/09/04 01:34:44;;;;;;;22.80;12.53;;;;;;;10.05;87.98;100736.11;21301140;81;99806;-91
2021/09/04 02:04:45;;;;;;;20.97;10.88;;;;;;;10.66;96.35;100745.80;21206050;82;100077;-90
2021/09/04 02:34:46;;;;;;;18.60;10.30;;;;;;;11.07;94.24;100744.05;21186088;82;100113;-89
2021/09/04 03:04:47;;;;;;;24.80;10.77;;;;;;;11.08;92.20;100743.69;21249445;82;99939;-89
2021/09/04 03:34:48;;;;;;;18.97;11.03;;;;;;;10.93;91.71;100755.66;21274102;81;99682;-90
2021/09/04 04:04:49;;;;;;;17.33;9.40;;;;;;;10.73;92.42;100758.30;21365284;81;99618;-90
2021/09/04 04:34:50;;;;;;;21.60;12.53;;;;;;;10.59;93.02;100762.22;21331376;81;99431;-91
2021/09/04 05:04:51;;;;;;;22.87;10.30;;;;;;;10.57;93.91;100774.75;21343535;81;99895;-89
2021/09/04 05:34:52;;;;;;;23.10;10.50;;;;;;;10.74;95.07;100797.64;21316000;81;99622;-90
2021/09/04 06:04:53;;;;;;;21.50;10.07;;;;;;;11.19;96.21;100804.43;21076707;82;99817;-89
2021/09/04 06:34:54;;;;;;;23.52;9.85;;;;;;;11.96;96.50;100815.12;21242138;81;99741;-90
2021/09/04 07:04:55;;;;;;;17.60;8.23;;;;;;;13.03;95.73;100815.20;21306062;81;99522;-89
2021/09/04 07:34:57;;;;;;;19.63;10.33;;;;;;;13.95;91.76;100833.88;21245728;81;99804;-86
2021/09/04 08:04:58;;;;;;;17.03;9.20;;;;;;;15.22;89.36;100842.58;21117435;82;99948;-87
2021/09/04 08:34:59;;;;;;;13.40;4.90;;;;;;;16.93;84.88;100855.74;21160288;81;99383;-84
2021/09/04 09:05:09;;;;;;;10.33;4.63;;;;;;;19.23;77.44;100865.86;21378459;81;99647;-87
2021/09/04 09:35:10;;;;;;;10.00;5.45;;;;;;;22.83;69.16;100867.43;21281068;81;102753;-86
2021/09/04 10:05:12;;;;;;;13.93;6.47;;;;;;;25.55;60.35;100861.19;21100494;82;2358857;-87
2021/09/04 10:35:13;;;;;;;;;;;;;;;26.93;54.64;100860.01;21135752;82;100216;-88
2021/09/04 11:05:40;;;;;;;11.33;6.30;;;;;;;26.68;50.23;100861.83;21108099;82;88211;-86
2021/09/04 11:35:48;;;;;;;9.83;5.10;;;;;;;26.68;47.22;100854.77;21175791;81;99607;-85
2021/09/04 12:05:49;;;;;;;10.85;4.78;;;;;;;24.73;49.89;100863.62;21339984;81;127640;-85
2021/09/04 12:35:55;;;;;;;9.80;4.60;;;;;;;24.42;47.59;100852.95;21315280;81;99592;-87
2021/09/04 13:05:56;;;;;;;10.63;4.28;;;;;;;24.70;48.20;100842.80;21190922;82;99299;-84
2021/09/04 13:35:57;;;;;;;12.05;5.58;;;;;;;24.68;48.67;100833.25;21194143;82;99590;-84
2021/09/04 14:05:58;;;;;;;8.63;4.30;;;;;;;24.21;48.63;100825.03;21156027;82;99719;-85
2021/09/04 14:35:58;;;;;;;8.85;4.70;;;;;;;23.86;47.01;100816.47;21126291;81;99588;-83
2021/09/04 15:05:59;;;;;;;8.05;3.67;;;;;;;22.62;48.57;100819.00;21006669;83;99240;-85
2021/09/04 15:36:06;;;;;;;9.20;4.28;;;;;;;22.27;49.23;100809.64;20989958;82;99416;-85
2021/09/04 16:06:06;;;;;;;6.93;3.17;;;;;;;21.46;50.01;100806.97;20968129;83;99450;-87
2021/09/04 16:36:08;;;;;;;6.80;2.87;;;;;;;20.75;51.78;100798.00;21053983;82;99316;-86
2021/09/04 17:06:09;;;;;;;10.70;3.85;;;;;;;20.07;53.63;100807.80;21337377;81;99610;-87
2021/09/04 17:36:10;;;;;;;9.53;3.20;;;;;;;18.98;55.50;100818.83;21342465;80;99466;-86
2021/09/04 18:06:11;;;;;;;7.50;3.13;;;;;;;18.20;55.48;100846.87;21348821;81;100655;-86
2021/09/04 18:36:12;;;;;;;11.45;2.90;;;;;;;17.36;56.35;100888.15;21313758;81;100008;-87
2021/09/04 19:06:13;;;;;;;;;;;;;;;16.46;57.66;100923.14;21039545;82;99632;-85
2021/09/04 19:36:15;;;;;;;9.47;3.90;;;;;;;15.60;60.90;100963.22;21091779;81;85427;-85
2021/09/04 20:06:16;;;;;;;9.60;3.55;;;;;;;14.97;63.33;100995.05;21375747;81;99294;-87
2021/09/04 20:36:33;;;;;;;11.43;3.67;;;;;;;14.34;64.72;101017.58;21380982;81;102040;-87
2021/09/04 21:06:33;;;;;;;8.60;3.57;;;;;;;13.80;66.59;101052.18;21365497;81;99871;-86
2021/09/04 21:36:38;;;;;;;6.90;2.90;;;;;;;13.41;66.59;101079.48;21320615;81;110732;-91
2021/09/04 22:06:40;;;;;;;8.43;3.57;;;;;;;13.03;68.40;101110.25;21354420;81;99752;-90
2021/09/04 22:36:42;;;;;;;11.10;3.73;;;;;;;12.84;71.29;101142.73;21310748;81;99382;-88
2021/09/04 23:06:43;;;;;;;11.95;4.78;;;;;;;12.84;73.12;101170.37;21187568;82;99562;-88
2021/09/04 23:36:44;;;;;;;9.33;3.93;;;;;;;12.79;75.20;101183.92;21162434;81;99445;-89
